EmailTwitter


Observations de surface / Québec / CYSC

Régions: Québec | Canada | États-Unis | Europe | France | UK | Ailleurs
Station
Affichage
Infos & localisation pour CYSC | Aide pour décoder les METARs

Observations prises le 2019-01-16 à 08H28 UTC à SHERBROOKE, QB (CYSC)

Etat du ciel: couvert.

Température: -4.0 Celsius

Point de rosée: -6.0 Celsius

Humidité relative: 86%

Facteur vent: -7.

Vents: Sud à 7 km/h ou 4 noeuds.

Pression au niveau moyen de la mer: 101.14 kilopascals.

Calage altimétrique: 100.98 kilopascals ou 29.82 pouces de mercure.

Visibilité horizontale: 9.00 milles terrestres ou 14.40 kilomètres.

Hauteur du plafond: 671 mètres ( 2200 pieds ).

Observation METAR:

CYSC 160828Z AUTO 18004KT 9SM BKN022 OVC034 M04/M06 A2982 RMK SLP114=